Flight Track Log - Related Links

Times and Time Zones

All times are in EDT time to prevent confusion due to time zone crossing. See the SWA499 flight status page for this flight to view local times or setup timezone preferences in your user account.

Time Position Orientation Groundspeed Altitude Reporting Facility
EDT Latitude Longitude Course Direction KTS MPH feet Rate Location/Type
Tue 12:33:14 PM 39.8833 -104.6000 118° Southeast 167 192 6,900  Level Denver TRACON
Tue 12:34:14 PM 39.8500 -104.5167 117° Southeast 233 268 9,200 1,706 Climbing Denver TRACON
Tue 12:35:03 PM 39.8275 -104.4453 112° Southeast 274 315 10,000 541 Climbing Denver Center
Tue 12:36:05 PM 39.8083 -104.3300 102° East 323 372 10,200 1,742 Climbing Denver Center
Tue 12:37:07 PM 39.7950 -104.2075 98° East 342 394 13,600 3,552 Climbing Denver Center
Tue 12:38:10 PM 39.7792 -104.0658 98° East 370 426 17,600 3,312 Climbing Denver Center
Tue 12:39:12 PM 39.7647 -103.9225 97° East 401 461 20,500 2,952 Climbing Denver Center
Tue 12:40:14 PM 39.7431 -103.7556 100° East 436 502 23,700 3,000 Climbing Denver Center
Tue 12:41:16 PM 39.7317 -103.6114 96° East 430 495 26,700 2,565 Climbing Denver Center
Tue 12:42:18 PM 39.7172 -103.4314 96° East 447 514 29,000 1,113 Climbing Denver Center
Tue 12:43:20 PM 39.7028 -103.2517 96° East 461 531 29,000  Level Denver Center
Tue 12:44:22 PM 39.6892 -103.0917 96° East 464 534 29,000 919 Level Denver Center
Tue 12:45:24 PM 39.6731 -102.9064 96° East 464 534 30,900 1,742 Climbing Denver Center
Tue 12:46:26 PM 39.6592 -102.7408 96° East 476 548 32,600 1,839 Climbing Denver Center
Tue 12:47:28 PM 39.6453 -102.5744 96° East 483 556 34,700 1,694 Climbing Denver Center
Tue 12:48:30 PM 39.6275 -102.3800 97° East 486 559 36,100 1,645 Climbing Denver Center
Tue 12:49:32 PM 39.6136 -102.2172 96° East 481 554 38,100 1,645 Climbing Denver Center
Tue 12:50:34 PM 39.5969 -102.0275 96° East 477 549 39,500 1,355 Climbing Denver Center
Tue 12:51:36 PM 39.5828 -101.8619 96° East 480 552 40,900 726 Climbing Denver Center
Tue 12:52:38 PM 39.5675 -101.6744 96° East 472 543 41,000 48 Climbing Denver Center
Tue 12:53:40 PM 39.5539 -101.5128 96° East 474 545 41,000  Level Denver Center
Tue 12:54:42 PM 39.5339 -101.3289 98° East 465 535 41,000  Level Denver Center
Tue 12:55:44 PM 39.5114 -101.1722 100° East 463 533 41,000  Level Denver Center
Tue 12:56:46 PM 39.4767 -100.9936 104° East 461 531 41,000  Level Denver Center
Tue 12:58:00 PM 39.4431 -100.8436 106° East 457 526 41,000  Level Denver Center
Tue 12:59:03 PM 39.3994 -100.6450 106° East 452 520 41,000  Level Denver Center
Tue 01:00:17 PM 39.3603 -100.4692 106° East 455 524 41,000  Level Denver Center
Tue 01:01:20 PM 39.3200 -100.2928 106° East 459 528 41,000  Level Denver Center
Tue 01:02:22 PM 39.2806 -100.1175 106° East 458 527 41,000  Level Denver Center
Tue 01:03:24 PM 39.2461 -99.9672 106° East 456 525 41,000  Level Denver Center
Tue 01:04:26 PM 39.2103 -99.8086 106° East 456 525 41,000  Level Denver Center
Tue 01:05:28 PM 39.1703 -99.6403 107° East 442 509 41,000  Level Denver Center
Tue 01:06:29 PM 39.1422 -99.5178 106° East 445 512 41,000  Level Denver Center
Tue 01:07:32 PM 39.1639 -99.3172 82° East 446 513 41,000  Level Denver Center
Tue 01:08:46 PM 39.1867 -99.1517 80° East 447 514 41,000  Level Denver Center
Tue 01:09:48 PM 39.2114 -98.9769 80° East 445 512 41,000 -48 Level Denver Center
Tue 01:10:50 PM 39.2353 -98.8183 79° East 445 512 40,900 -624 Descending Denver Center
Tue 01:11:53 PM 39.2611 -98.6292 80° East 447 514 39,700 -1,008 Descending Denver Center
Tue 01:12:55 PM 39.2844 -98.4697 79° East 451 519 38,800 -898 Descending Denver Center
Tue 01:14:00 PM 39.3086 -98.3031 79° East 462 532 37,800 -945 Descending Kansas City Center
Tue 01:15:02 PM 39.3319 -98.1283 80° East 461 531 36,800 -919 Descending Kansas City Center
Tue 01:16:04 PM 39.3539 -97.9700 80° East 464 534 35,900 -968 Descending Kansas City Center
Tue 01:17:06 PM 39.3811 -97.7747 80° East 475 547 34,800 -1,065 Descending Kansas City Center
Tue 01:18:08 PM 39.4033 -97.6064 80° East 475 547 33,700 -1,016 Descending Kansas City Center
Tue 01:19:10 PM 39.4244 -97.4394 81° East 462 532 32,700 -968 Descending Kansas City Center
Tue 01:20:12 PM 39.4444 -97.2847 80° East 457 526 31,700 -1,016 Descending Kansas City Center
Tue 01:21:14 PM 39.4672 -97.1072 81° East 450 518 30,600 -1,016 Descending Kansas City Center
Tue 01:22:16 PM 39.4861 -96.9564 81° East 445 512 29,600 -1,008 Descending Kansas City Center
Tue 01:23:19 PM 39.5067 -96.7858 81° East 433 498 28,500 -1,065 Descending Kansas City Center
Tue 01:24:20 PM 39.5261 -96.6319 81° East 428 493 27,400 -1,024 Descending Kansas City Center
Tue 01:25:22 PM 39.5439 -96.4861 81° East 425 489 26,400 -968 Descending Kansas City Center
Tue 01:26:24 PM 39.5619 -96.3364 81° East 421 484 25,400 -1,065 Descending Kansas City Center
Tue 01:27:26 PM 39.5792 -96.1903 81° East 413 475 24,200 -1,645 Descending Kansas City Center
Tue 01:28:28 PM 39.5989 -96.0297 81° East 402 463 22,000 -1,984 Descending Kansas City Center
Tue 01:29:30 PM 39.6136 -95.8972 82° East 390 449 20,100 -2,081 Descending Kansas City Center
Tue 01:30:32 PM 39.6328 -95.7442 81° East 385 443 17,700 -2,081 Descending Kansas City Center
Tue 01:31:34 PM 39.6469 -95.6175 82° East 373 429 15,800 -1,935 Descending Kansas City Center
Tue 01:32:36 PM 39.6622 -95.4769 82° East 353 406 13,700 -1,680 Descending Kansas City Center
Tue 01:33:39 PM 39.6758 -95.3603 81° East 342 394 12,300 -1,776 Descending Kansas City Center
Tue 01:34:41 PM 39.6897 -95.2306 82° East 326 375 10,000 -1,742 Descending Kansas City Center
Tue 01:35:43 PM 39.6731 -95.1239 101° East 311 358 8,700 -1,258 Descending Kansas City Center
Tue 01:36:45 PM 39.6386 -95.0331 116° Southeast 295 339 7,400 -1,355 Descending Kansas City Center
Tue 01:37:47 PM 39.5825 -94.9472 130° Southeast 277 319 5,900 -677 Descending Kansas City Center
Tue 01:38:49 PM 39.5414 -94.8819 129° Southeast 245 282 6,000 -484 Climbing Kansas City Center
Tue 01:39:51 PM 39.5014 -94.8181 129° Southeast 205 236 4,900 -1,113 Descending Kansas City Center
Tue 01:40:53 PM 39.4644 -94.7714 136° Southeast 195 224 3,700 -1,113 Descending Kansas City Center
Tue 01:41:55 PM 39.4211 -94.7242 140° Southeast 182 209 2,600 -726 Descending Kansas City Center
Tue 01:42:57 PM 39.3858 -94.7047 157° South 145 167 2,200 -581 Descending Kansas City Center
Tue 01:43:59 PM 39.3469 -94.7133 190° South 128 147 1,400 -629 Descending Kansas City Center
Tue 01:45:01 PM 39.3186 -94.7222 194° South 130 150 900 -484 Descending Kansas City Center

Login

Don't have an account? Register now (free) for customized features, flight alerts, and more!